createdAt,value
2022-11-24T00:01:26.695Z,8.80
2022-11-24T00:04:00.560Z,10.93
2022-11-24T00:06:29.135Z,9.43
2022-11-24T00:08:57.237Z,7.82
2022-11-24T00:11:26.619Z,8.57
2022-11-24T00:13:54.022Z,8.70
2022-11-24T00:16:26.507Z,8.15
2022-11-24T00:18:56.821Z,10.70
2022-11-24T00:21:25.425Z,9.70
2022-11-24T00:23:53.155Z,9.38
2022-11-24T00:26:22.596Z,7.65
2022-11-24T00:28:51.842Z,8.65
2022-11-24T00:31:27.703Z,8.80
2022-11-24T00:33:57.558Z,10.82
2022-11-24T00:36:26.934Z,8.02
2022-11-24T00:38:58.984Z,8.18
2022-11-24T00:41:28.116Z,10.20
2022-11-24T00:43:56.152Z,10.13
2022-11-24T00:46:24.269Z,9.32
2022-11-24T00:48:52.205Z,8.75
2022-11-24T00:51:21.379Z,9.80
2022-11-24T00:53:48.805Z,9.55
2022-11-24T00:56:16.177Z,7.65
2022-11-24T00:58:43.331Z,9.27
2022-11-24T01:01:19.603Z,9.43
2022-11-24T01:03:47.675Z,9.05
2022-11-24T01:06:18.122Z,10.38
2022-11-24T01:08:46.002Z,11.55
2022-11-24T01:11:14.635Z,7.88
2022-11-24T01:13:43.733Z,12.85
2022-11-24T01:16:31.706Z,11.65
2022-11-24T01:18:58.932Z,8.35
2022-11-24T01:21:26.269Z,9.88
2022-11-24T01:23:53.544Z,11.32
2022-11-24T01:26:22.704Z,10.85
2022-11-24T01:28:59.567Z,11.65
2022-11-24T01:31:27.383Z,9.80
2022-11-24T01:33:54.980Z,10.18
2022-11-24T01:36:22.593Z,11.93
2022-11-24T01:38:49.902Z,10.82
2022-11-24T01:41:22.954Z,11.98
2022-11-24T01:43:52.313Z,11.55
2022-11-24T01:46:33.700Z,10.20
2022-11-24T01:49:11.677Z,12.70
2022-11-24T01:51:58.284Z,10.73
2022-11-24T01:54:32.396Z,12.38
2022-11-24T01:57:07.973Z,13.18
2022-11-24T01:59:35.524Z,13.63
2022-11-24T02:02:02.772Z,12.98
2022-11-24T02:04:33.649Z,14.63
2022-11-24T02:07:02.880Z,12.40
2022-11-24T02:09:36.838Z,13.95
2022-11-24T02:12:04.276Z,13.02
2022-11-24T02:14:31.650Z,15.15
2022-11-24T02:16:58.996Z,13.20
2022-11-24T02:19:41.186Z,14.38
2022-11-24T02:22:20.537Z,12.05
2022-11-24T02:24:56.465Z,13.85
2022-11-24T02:27:23.839Z,14.63
2022-11-24T02:29:51.534Z,14.23
2022-11-24T02:32:20.316Z,15.45
2022-11-24T02:34:47.581Z,16.48
2022-11-24T02:37:14.680Z,11.05
2022-11-24T02:39:41.941Z,13.85
2022-11-24T02:42:13.254Z,13.27
2022-11-24T02:44:45.826Z,13.38
2022-11-24T02:47:13.832Z,12.63
2022-11-24T02:49:41.409Z,15.57
2022-11-24T02:52:09.019Z,13.32
2022-11-24T02:54:36.386Z,15.38
2022-11-24T02:57:04.194Z,13.23
2022-11-24T02:59:31.660Z,11.95
2022-11-24T03:01:58.826Z,12.43
2022-11-24T03:04:26.184Z,16.58
2022-11-24T03:06:53.392Z,12.75
2022-11-24T03:09:20.603Z,13.75
2022-11-24T03:11:47.824Z,14.00
2022-11-24T03:14:15.000Z,14.70
2022-11-24T03:16:42.211Z,12.25
2022-11-24T03:19:09.299Z,13.63
2022-11-24T03:21:39.439Z,13.15
2022-11-24T03:24:06.621Z,14.82
2022-11-24T03:26:35.464Z,14.45
2022-11-24T03:29:02.796Z,13.82
2022-11-24T03:31:30.092Z,16.13
2022-11-24T03:33:57.233Z,15.57
2022-11-24T03:36:24.417Z,16.88
2022-11-24T03:38:51.522Z,10.93
2022-11-24T03:41:18.828Z,15.77
2022-11-24T03:43:45.911Z,16.70
2022-11-24T03:46:13.494Z,16.73
2022-11-24T03:48:41.272Z,12.48
2022-11-24T03:51:08.360Z,17.05
2022-11-24T03:53:35.564Z,12.88
2022-11-24T03:56:04.106Z,13.95
2022-11-24T03:58:31.438Z,14.38
2022-11-24T04:00:58.964Z,14.43
2022-11-24T04:03:26.549Z,13.45
2022-11-24T04:05:53.688Z,16.38
2022-11-24T04:08:21.321Z,16.10
2022-11-24T04:10:53.413Z,14.52
2022-11-24T04:13:24.146Z,15.15
2022-11-24T04:15:51.817Z,16.38
2022-11-24T04:18:19.792Z,12.85
2022-11-24T04:20:51.949Z,13.07
2022-11-24T04:23:19.523Z,15.82
2022-11-24T04:25:46.800Z,14.38
2022-11-24T04:28:14.048Z,16.88
2022-11-24T04:30:45.056Z,12.85
2022-11-24T04:33:12.997Z,14.20
2022-11-24T04:35:40.110Z,15.88
2022-11-24T04:38:07.300Z,17.25
2022-11-24T04:40:34.688Z,14.75
2022-11-24T04:43:01.756Z,17.30
2022-11-24T04:45:28.865Z,17.42
2022-11-24T04:47:56.184Z,16.02
2022-11-24T04:50:23.337Z,16.95
2022-11-24T04:52:50.530Z,15.45
2022-11-24T04:55:17.777Z,16.63
2022-11-24T04:57:45.020Z,17.17
2022-11-24T05:00:12.840Z,15.45
2022-11-24T05:02:40.146Z,16.50
2022-11-24T05:05:08.252Z,15.82
2022-11-24T05:07:35.426Z,13.48
2022-11-24T05:10:21.281Z,16.55
2022-11-24T05:12:56.398Z,15.80
2022-11-24T05:15:24.117Z,13.95
2022-11-24T05:17:51.226Z,16.63
2022-11-24T05:20:18.723Z,16.95
2022-11-24T05:22:45.983Z,16.08
2022-11-24T05:25:14.411Z,16.38
2022-11-24T05:27:41.944Z,17.58
2022-11-24T05:30:09.760Z,16.02
2022-11-24T05:32:36.769Z,16.42
2022-11-24T05:35:04.739Z,16.63
2022-11-24T05:37:31.828Z,19.45
2022-11-24T05:39:58.907Z,15.50
2022-11-24T05:42:46.197Z,18.40
2022-11-24T05:45:19.674Z,15.25
2022-11-24T05:47:47.730Z,17.15
2022-11-24T05:50:18.360Z,15.63
2022-11-24T05:52:45.725Z,16.83
2022-11-24T05:55:14.835Z,14.07
2022-11-24T05:57:42.154Z,14.45
2022-11-24T06:00:10.402Z,15.18
2022-11-24T06:02:37.777Z,13.80
2022-11-24T06:05:05.345Z,16.67
2022-11-24T06:07:32.524Z,14.30
2022-11-24T06:09:59.833Z,19.13
2022-11-24T06:12:26.931Z,16.67
2022-11-24T06:14:53.951Z,17.70
2022-11-24T06:17:21.007Z,16.50
2022-11-24T06:19:50.269Z,16.10
2022-11-24T06:22:19.326Z,16.38
2022-11-24T06:24:47.288Z,18.17
2022-11-24T06:27:14.936Z,15.73
2022-11-24T06:29:42.156Z,17.35
2022-11-24T06:32:09.654Z,19.90
2022-11-24T06:34:36.982Z,15.30
2022-11-24T06:37:04.231Z,18.35
2022-11-24T06:39:31.314Z,14.88
2022-11-24T06:41:59.237Z,15.57
2022-11-24T06:44:26.660Z,15.27
2022-11-24T06:46:53.885Z,19.50
2022-11-24T06:49:20.982Z,14.77
2022-11-24T06:51:48.128Z,15.23
2022-11-24T06:54:16.946Z,15.45
2022-11-24T06:56:44.428Z,13.85
2022-11-24T06:59:17.917Z,13.52
2022-11-24T07:01:45.299Z,15.80
2022-11-24T07:04:12.425Z,17.25
2022-11-24T07:06:41.491Z,15.52
2022-11-24T07:09:10.411Z,19.88
2022-11-24T07:11:38.496Z,17.10
2022-11-24T07:14:05.842Z,16.20
2022-11-24T07:16:33.255Z,17.40
2022-11-24T07:19:00.816Z,16.75
2022-11-24T07:21:30.701Z,16.02
2022-11-24T07:23:58.607Z,15.75
2022-11-24T07:26:26.677Z,13.00
2022-11-24T07:28:53.729Z,16.60
2022-11-24T07:31:25.277Z,20.65
2022-11-24T07:33:54.156Z,17.52
2022-11-24T07:36:21.983Z,14.38
2022-11-24T07:38:49.617Z,19.40
2022-11-24T07:41:19.743Z,17.52
2022-11-24T07:43:47.544Z,17.00
2022-11-24T07:46:17.191Z,18.48
2022-11-24T07:48:44.530Z,14.07
2022-11-24T07:51:11.788Z,16.75
2022-11-24T07:53:39.481Z,21.15
2022-11-24T07:56:07.169Z,15.02
2022-11-24T07:58:36.390Z,17.38
2022-11-24T08:01:12.199Z,15.85
2022-11-24T08:03:39.942Z,16.92
2022-11-24T08:06:35.407Z,14.90
2022-11-24T08:08:55.504Z,16.35
2022-11-24T08:11:22.837Z,18.63
2022-11-24T08:13:49.969Z,20.65
2022-11-24T08:16:19.526Z,19.50
2022-11-24T08:18:55.263Z,16.98
2022-11-24T08:21:25.271Z,16.98
2022-11-24T08:23:56.457Z,15.80
2022-11-24T08:26:25.153Z,17.10
2022-11-24T08:28:58.855Z,18.27
2022-11-24T08:31:32.978Z,15.52
2022-11-24T08:34:01.158Z,18.08
2022-11-24T08:36:28.247Z,14.57
2022-11-24T08:38:59.685Z,19.10
2022-11-24T08:43:55.686Z,15.07
2022-11-24T08:46:24.113Z,16.70
2022-11-24T08:48:53.339Z,17.73
2022-11-24T08:51:26.235Z,17.40
2022-11-24T08:53:58.487Z,13.60
2022-11-24T08:56:27.639Z,17.83
2022-11-24T08:58:55.765Z,17.85
2022-11-24T09:01:22.993Z,13.45
2022-11-24T09:03:51.479Z,14.65
2022-11-24T09:06:23.102Z,16.00
2022-11-24T09:08:50.902Z,16.02
2022-11-24T09:11:18.653Z,15.52
2022-11-24T09:13:45.779Z,15.25
2022-11-24T09:16:18.807Z,20.15
2022-11-24T09:18:46.202Z,13.65
2022-11-24T09:21:19.139Z,14.68
2022-11-24T09:23:50.916Z,15.07
2022-11-24T09:26:22.912Z,14.88
2022-11-24T09:28:54.511Z,12.90
2022-11-24T09:31:26.829Z,12.55
2022-11-24T09:33:54.513Z,14.43
2022-11-24T09:36:22.338Z,12.35
2022-11-24T09:38:49.782Z,13.07
2022-11-24T09:41:31.838Z,13.07
2022-11-24T09:44:24.971Z,11.15
2022-11-24T09:47:19.775Z,13.02
2022-11-24T09:50:00.986Z,13.23
2022-11-24T09:52:41.594Z,12.93
2022-11-24T09:55:37.039Z,12.00
2022-11-24T09:58:15.790Z,12.20
2022-11-24T10:00:43.573Z,12.48
2022-11-24T10:03:24.886Z,14.27
2022-11-24T10:05:52.606Z,14.05
2022-11-24T10:08:34.363Z,14.30
2022-11-24T10:11:05.614Z,13.43
2022-11-24T10:13:41.593Z,12.27
2022-11-24T10:16:32.692Z,12.23
2022-11-24T10:19:34.494Z,14.27
2022-11-24T10:22:52.602Z,11.05
2022-11-24T10:25:22.916Z,13.48
2022-11-24T10:28:02.044Z,13.20
2022-11-24T10:30:29.967Z,14.05
2022-11-24T10:33:01.765Z,13.10
2022-11-24T10:35:36.608Z,13.25
2022-11-24T10:38:20.040Z,13.98
2022-11-24T10:41:09.034Z,14.50
2022-11-24T10:43:41.671Z,10.60
2022-11-24T10:46:16.990Z,11.10
2022-11-24T10:48:50.967Z,9.85
2022-11-24T10:52:01.582Z,13.13
2022-11-24T10:54:28.695Z,12.32
2022-11-24T10:56:56.355Z,12.18
2022-11-24T10:59:38.387Z,11.75
2022-11-24T11:02:39.233Z,11.88
2022-11-24T11:05:38.195Z,11.20
2022-11-24T11:08:29.691Z,9.52
2022-11-24T11:11:18.588Z,12.13
2022-11-24T11:13:52.057Z,11.60
2022-11-24T11:16:43.444Z,13.25
2022-11-24T11:19:50.930Z,10.70
2022-11-24T11:22:26.472Z,12.82
2022-11-24T11:25:05.113Z,14.73
2022-11-24T11:27:32.368Z,10.38
2022-11-24T11:36:11.437Z,12.48
2022-11-24T11:38:39.952Z,12.55
2022-11-24T11:41:17.950Z,14.43
2022-11-24T11:43:47.298Z,13.38
2022-11-24T11:46:18.224Z,12.10
2022-11-24T11:48:47.243Z,12.75
2022-11-24T11:54:49.513Z,13.73
2022-11-24T11:58:07.480Z,15.30
2022-11-24T12:00:40.268Z,15.25
2022-11-24T12:03:33.841Z,12.48
2022-11-24T12:06:23.789Z,10.32
2022-11-24T12:11:59.966Z,11.57
2022-11-24T12:14:53.647Z,12.05
2022-11-24T12:17:56.964Z,10.85
2022-11-24T12:20:58.030Z,13.90
2022-11-24T12:23:54.617Z,14.63
2022-11-24T12:26:34.880Z,15.32
2022-11-24T12:29:01.967Z,10.98
2022-11-24T12:31:54.534Z,13.35
2022-11-24T12:34:21.837Z,16.65
2022-11-24T12:37:26.786Z,14.65
2022-11-24T12:40:31.489Z,15.77
2022-11-24T12:43:19.584Z,13.27
2022-11-24T12:45:49.404Z,14.48
2022-11-24T12:48:25.566Z,12.43
2022-11-24T12:50:55.283Z,12.02
2022-11-24T12:53:34.767Z,14.25
2022-11-24T12:56:12.947Z,16.02
2022-11-24T12:58:50.432Z,15.60
2022-11-24T13:01:20.358Z,15.43
2022-11-24T13:04:10.952Z,17.05
2022-11-24T13:06:50.952Z,16.85
2022-11-24T13:09:18.180Z,14.38
2022-11-24T13:11:49.175Z,16.55
2022-11-24T13:14:23.494Z,13.38
2022-11-24T13:17:28.510Z,14.77
2022-11-24T13:19:47.065Z,17.65
2022-11-24T13:22:34.354Z,12.85
2022-11-24T13:25:16.652Z,16.77
2022-11-24T13:27:46.398Z,14.60
2022-11-24T13:30:35.470Z,15.65
2022-11-24T13:33:16.190Z,16.77
2022-11-24T13:36:02.325Z,14.43
2022-11-24T13:38:53.716Z,13.85
2022-11-24T13:41:33.030Z,13.27
2022-11-24T13:44:26.346Z,13.27
2022-11-24T13:47:06.527Z,15.55
2022-11-24T13:49:42.025Z,18.70
2022-11-24T13:52:42.269Z,14.77
2022-11-24T13:55:12.367Z,16.73
2022-11-24T13:57:41.851Z,12.93
2022-11-24T14:00:36.744Z,16.20
2022-11-24T14:03:24.876Z,14.73
2022-11-24T14:05:53.531Z,14.48
2022-11-24T14:08:26.681Z,14.70
2022-11-24T14:10:59.211Z,16.17
2022-11-24T14:13:28.564Z,14.32
2022-11-24T14:16:10.884Z,16.30
2022-11-24T14:18:39.865Z,14.35
2022-11-24T14:21:30.437Z,16.80
2022-11-24T14:24:11.872Z,14.73
2022-11-24T14:26:41.504Z,13.43
2022-11-24T14:29:28.515Z,17.10
2022-11-24T14:32:05.200Z,14.13
2022-11-24T14:34:35.670Z,18.13
2022-11-24T14:37:02.980Z,14.07
2022-11-24T14:39:30.469Z,12.48
2022-11-24T14:42:10.113Z,16.45
2022-11-24T14:45:00.121Z,17.52
2022-11-24T14:47:32.685Z,14.18
2022-11-24T14:50:22.883Z,18.77
2022-11-24T14:53:00.040Z,13.07
2022-11-24T14:55:29.218Z,14.00
2022-11-24T14:57:56.741Z,15.13
2022-11-24T15:00:28.806Z,16.70
2022-11-24T15:03:01.965Z,13.88
2022-11-24T15:06:01.151Z,15.75
2022-11-24T15:08:43.702Z,14.73
2022-11-24T15:11:10.771Z,14.55
2022-11-24T15:13:38.765Z,16.55
2022-11-24T15:16:16.486Z,15.98
2022-11-24T15:18:46.814Z,15.55
2022-11-24T15:21:19.199Z,16.27
2022-11-24T15:24:25.396Z,17.63
2022-11-24T15:27:00.704Z,17.27
2022-11-24T15:29:27.905Z,14.73
2022-11-24T15:31:54.992Z,16.08
2022-11-24T15:34:22.057Z,18.50
2022-11-24T15:36:49.351Z,14.75
2022-11-24T15:39:16.453Z,16.48
2022-11-24T15:41:43.470Z,15.63
2022-11-24T15:44:10.845Z,13.15
2022-11-24T15:46:38.852Z,14.35
2022-11-24T15:49:07.050Z,15.40
2022-11-24T15:51:35.923Z,15.90
2022-11-24T15:54:03.032Z,15.13
2022-11-24T15:56:35.830Z,15.80
2022-11-24T15:59:04.113Z,19.38
2022-11-24T16:01:33.372Z,24.45
2022-11-24T16:04:01.501Z,16.63
2022-11-24T16:06:28.559Z,24.40
2022-11-24T16:08:55.717Z,20.77
2022-11-24T16:11:23.572Z,15.98
2022-11-24T16:13:53.983Z,13.10
2022-11-24T16:16:22.937Z,14.68
2022-11-24T16:18:50.213Z,13.32
2022-11-24T16:21:17.238Z,13.27
2022-11-24T16:23:44.520Z,15.63
2022-11-24T16:26:11.542Z,13.95
2022-11-24T16:28:38.909Z,14.48
2022-11-24T16:31:06.163Z,17.27
2022-11-24T16:33:33.216Z,14.68
2022-11-24T16:36:00.449Z,13.75
2022-11-24T16:38:27.456Z,15.00
2022-11-24T16:40:56.588Z,16.45
2022-11-24T16:43:24.783Z,17.08
2022-11-24T16:46:12.699Z,14.90
2022-11-24T16:48:39.830Z,16.40
2022-11-24T16:51:08.589Z,16.33
2022-11-24T16:53:35.820Z,18.05
2022-11-24T16:56:03.078Z,15.73
2022-11-24T16:58:30.182Z,18.98
2022-11-24T17:01:11.145Z,16.13
2022-11-24T17:03:39.100Z,14.50
2022-11-24T17:06:08.728Z,14.15
2022-11-24T17:08:36.913Z,16.52
2022-11-24T17:11:13.818Z,17.83
2022-11-24T17:13:41.249Z,28.95
2022-11-24T17:16:11.024Z,28.15
2022-11-24T17:18:39.117Z,21.88
2022-11-24T17:21:09.967Z,22.30
2022-11-24T17:23:37.850Z,15.80
2022-11-24T17:26:07.184Z,18.42
2022-11-24T17:28:35.084Z,18.65
2022-11-24T17:31:14.127Z,14.60
2022-11-24T17:33:41.208Z,19.67
2022-11-24T17:36:08.476Z,19.17
2022-11-24T17:38:37.052Z,15.95
2022-11-24T17:41:04.401Z,17.45
2022-11-24T17:43:31.620Z,19.30
2022-11-24T17:46:01.260Z,19.70
2022-11-24T17:48:29.630Z,18.23
2022-11-24T17:51:10.929Z,16.98
2022-11-24T17:53:39.310Z,22.60
2022-11-24T17:56:07.861Z,20.88
2022-11-24T17:58:41.264Z,17.17
2022-11-24T18:01:10.357Z,17.35
2022-11-24T18:03:39.970Z,16.08
2022-11-24T18:06:08.794Z,16.77
2022-11-24T18:08:41.592Z,16.55
2022-11-24T18:11:17.051Z,14.82
2022-11-24T18:14:01.416Z,14.55
2022-11-24T18:16:31.244Z,17.55
2022-11-24T18:19:08.669Z,15.90
2022-11-24T18:21:37.930Z,16.17
2022-11-24T18:24:05.416Z,15.63
2022-11-24T18:26:32.485Z,17.02
2022-11-24T18:28:59.752Z,15.95
2022-11-24T18:31:27.350Z,17.52
2022-11-24T18:33:54.458Z,18.85
2022-11-24T18:36:27.050Z,16.95
2022-11-24T18:38:57.888Z,17.13
2022-11-24T18:41:24.953Z,18.20
2022-11-24T18:43:52.199Z,18.92
2022-11-24T18:46:19.397Z,18.38
2022-11-24T18:48:47.242Z,15.43
2022-11-24T18:51:14.925Z,20.25
2022-11-24T18:53:43.599Z,17.65
2022-11-24T18:56:16.344Z,20.05
2022-11-24T18:58:44.340Z,16.92
2022-11-24T19:01:16.897Z,18.08
2022-11-24T19:03:49.504Z,19.48
2022-11-24T19:06:19.696Z,16.35
2022-11-24T19:08:47.725Z,20.67
2022-11-24T19:11:23.734Z,18.73
2022-11-24T19:13:53.798Z,16.80
2022-11-24T19:16:21.844Z,15.77
2022-11-24T19:18:54.235Z,19.52
2022-11-24T19:21:22.131Z,18.63
2022-11-24T19:23:50.258Z,18.83
2022-11-24T19:26:17.556Z,16.85
2022-11-24T19:28:44.885Z,20.13
2022-11-24T19:31:14.159Z,21.02
2022-11-24T19:33:45.486Z,19.85
2022-11-24T19:36:20.685Z,16.95
2022-11-24T19:38:52.889Z,16.75
2022-11-24T19:41:22.419Z,14.93
2022-11-24T19:43:50.177Z,17.75
2022-11-24T19:46:18.854Z,19.75
2022-11-24T19:48:50.385Z,18.17
2022-11-24T19:53:46.719Z,23.38
2022-11-24T19:56:17.497Z,20.25
2022-11-24T19:58:44.894Z,22.00
2022-11-24T20:01:18.009Z,17.42
2022-11-24T20:03:47.781Z,18.30
2022-11-24T20:06:15.866Z,19.88
2022-11-24T20:08:43.760Z,17.30
2022-11-24T20:11:15.934Z,19.45
2022-11-24T20:13:45.300Z,20.10
2022-11-24T20:16:26.743Z,21.40
2022-11-24T20:19:01.754Z,19.40
2022-11-24T20:21:32.786Z,16.90
2022-11-24T20:24:08.517Z,19.95
2022-11-24T20:26:41.659Z,19.98
2022-11-24T20:29:13.704Z,18.38
2022-11-24T20:31:46.981Z,20.88
2022-11-24T20:34:15.299Z,18.92
2022-11-24T20:36:48.431Z,16.50
2022-11-24T20:39:26.500Z,21.83
2022-11-24T20:41:55.538Z,20.17
2022-11-24T20:44:27.885Z,18.33
2022-11-24T20:46:57.065Z,20.40
2022-11-24T20:49:24.440Z,20.88
2022-11-24T20:51:57.254Z,18.17
2022-11-24T20:54:24.846Z,18.45
2022-11-24T20:56:52.294Z,22.95
2022-11-24T20:59:24.801Z,18.42
2022-11-24T21:01:56.057Z,18.15
2022-11-24T21:04:28.061Z,19.92
2022-11-24T21:06:56.109Z,19.75
2022-11-24T21:09:27.413Z,20.10
2022-11-24T21:11:54.953Z,21.70
2022-11-24T21:14:22.120Z,20.35
2022-11-24T21:16:49.322Z,19.05
2022-11-24T21:19:20.699Z,25.45
2022-11-24T21:21:51.178Z,20.35
2022-11-24T21:24:21.966Z,20.85
2022-11-24T21:26:53.008Z,16.05
2022-11-24T21:29:24.048Z,24.75
2022-11-24T21:31:51.592Z,21.52
2022-11-24T21:34:19.635Z,23.17
2022-11-24T21:36:47.547Z,20.45
2022-11-24T21:39:15.530Z,20.75
2022-11-24T21:41:46.105Z,22.35
2022-11-24T21:44:13.739Z,15.55
2022-11-24T21:46:46.256Z,22.50
2022-11-24T21:49:18.526Z,24.05
2022-11-24T21:51:46.443Z,26.70
2022-11-24T21:54:13.754Z,26.20
2022-11-24T21:56:40.786Z,22.73
2022-11-24T21:59:07.940Z,38.92
2022-11-24T22:01:35.138Z,30.60
2022-11-24T22:04:02.193Z,35.63
2022-11-24T22:06:29.324Z,28.42
2022-11-24T22:08:56.376Z,38.95
2022-11-24T22:11:25.263Z,28.27
2022-11-24T22:13:53.068Z,23.33
2022-11-24T22:16:24.876Z,26.58
2022-11-24T22:18:52.694Z,23.60
2022-11-24T22:21:30.169Z,22.73
2022-11-24T22:23:57.435Z,21.55
2022-11-24T22:26:24.923Z,25.40
2022-11-24T22:28:53.413Z,19.77
2022-11-24T22:31:26.497Z,21.00
2022-11-24T22:33:55.373Z,23.02
2022-11-24T22:36:24.915Z,18.75
2022-11-24T22:38:57.406Z,21.20
2022-11-24T22:41:24.909Z,23.38
2022-11-24T22:43:52.165Z,20.65
2022-11-24T22:46:24.864Z,21.83
2022-11-24T22:48:55.801Z,20.08
2022-11-24T22:51:27.011Z,18.67
2022-11-24T22:53:56.830Z,22.48
2022-11-24T22:56:24.782Z,19.00
2022-11-24T22:58:52.071Z,20.02
2022-11-24T23:01:24.414Z,18.20
2022-11-24T23:03:54.633Z,18.98
2022-11-24T23:06:29.759Z,20.48
2022-11-24T23:08:58.551Z,18.60
2022-11-24T23:11:37.235Z,19.17
2022-11-24T23:14:12.386Z,17.08
2022-11-24T23:16:40.306Z,17.50
2022-11-24T23:19:07.562Z,18.88
2022-11-24T23:21:38.447Z,18.83
2022-11-24T23:24:06.472Z,22.58
2022-11-24T23:26:39.619Z,18.90
2022-11-24T23:29:08.495Z,21.38
2022-11-24T23:31:35.831Z,18.58
2022-11-24T23:34:04.655Z,20.88
2022-11-24T23:36:33.140Z,19.02
2022-11-24T23:39:11.100Z,17.95
2022-11-24T23:41:38.685Z,21.60
2022-11-24T23:44:06.071Z,18.38
2022-11-24T23:46:33.533Z,20.67
2022-11-24T23:49:00.710Z,21.55
2022-11-24T23:51:32.970Z,23.35
2022-11-24T23:56:46.303Z,21.55
2022-11-24T23:59:13.552Z,22.65
